createdAt,value
2022-08-30T00:00:52.759Z,98637.88
2022-08-30T00:01:54.295Z,98628.38
2022-08-30T00:02:56.942Z,98628.41
2022-08-30T00:03:59.783Z,98629.19
2022-08-30T00:05:02.334Z,98631.47
2022-08-30T00:06:08.692Z,98633.75
2022-08-30T00:07:10.275Z,98634.53
2022-08-30T00:08:12.597Z,98625.78
2022-08-30T00:09:15.671Z,98639.47
2022-08-30T00:10:17.286Z,98633.38
2022-08-30T00:11:22.340Z,98633.38
2022-08-30T00:12:23.882Z,98636.03
2022-08-30T00:13:25.481Z,98641.38
2022-08-30T00:14:27.632Z,98638.31
2022-08-30T00:15:30.121Z,98637.22
2022-08-30T00:16:31.673Z,98638.72
2022-08-30T00:17:33.579Z,98629.97
2022-08-30T00:18:35.864Z,98631.50
2022-08-30T00:19:38.592Z,98631.88
2022-08-30T00:20:40.053Z,98626.56
2022-08-30T00:21:41.544Z,98632.25
2022-08-30T00:22:43.038Z,98636.06
2022-08-30T00:23:44.846Z,98631.88
2022-08-30T00:24:46.602Z,98625.03
2022-08-30T00:25:48.141Z,98628.06
2022-08-30T00:26:49.645Z,98633.00
2022-08-30T00:27:51.159Z,98631.09
2022-08-30T00:28:53.008Z,98631.13
2022-08-30T00:29:54.929Z,98631.88
2022-08-30T00:30:56.454Z,98630.34
2022-08-30T00:31:57.974Z,98631.09
2022-08-30T00:32:59.515Z,98633.75
2022-08-30T00:34:01.339Z,98634.53
2022-08-30T00:35:04.540Z,98636.44
2022-08-30T00:36:06.232Z,98637.94
2022-08-30T00:37:07.788Z,98638.31
2022-08-30T00:38:11.712Z,98639.09
2022-08-30T00:39:13.664Z,98634.53
2022-08-30T00:40:16.112Z,98640.22
2022-08-30T00:41:17.668Z,98641.00
2022-08-30T00:42:20.817Z,98647.06
2022-08-30T00:43:28.033Z,98646.69
2022-08-30T00:44:29.739Z,98632.63
2022-08-30T00:45:35.471Z,98639.47
2022-08-30T00:46:37.107Z,98645.19
2022-08-30T00:47:38.692Z,98641.78
2022-08-30T00:48:45.158Z,98640.97
2022-08-30T00:49:49.582Z,98643.66
2022-08-30T00:51:03.687Z,98647.44
2022-08-30T00:52:07.314Z,98644.38
2022-08-30T00:53:14.592Z,98644.31
2022-08-30T00:54:17.331Z,98646.94
2022-08-30T00:55:20.180Z,98638.19
2022-08-30T00:56:25.321Z,98649.19
2022-08-30T00:57:26.906Z,98645.41
2022-08-30T00:58:33.931Z,98643.09
2022-08-30T00:59:36.059Z,98635.88
2022-08-30T01:00:37.705Z,98636.25
2022-08-30T01:01:39.349Z,98635.13
2022-08-30T01:02:41.751Z,98637.06
2022-08-30T01:03:44.501Z,98629.09
2022-08-30T01:04:46.931Z,98634.06
2022-08-30T01:05:50.546Z,98624.22
2022-08-30T01:06:52.957Z,98629.91
2022-08-30T01:07:54.439Z,98623.06
2022-08-30T01:08:56.961Z,98628.41
2022-08-30T01:09:58.432Z,98621.56
2022-08-30T01:11:01.581Z,98632.94
2022-08-30T01:12:05.713Z,98622.31
2022-08-30T01:13:09.496Z,98625.00
2022-08-30T01:14:12.887Z,98624.97
2022-08-30T01:15:15.518Z,98627.22
2022-08-30T01:16:19.308Z,98631.44
2022-08-30T01:17:23.239Z,98629.16
2022-08-30T01:18:26.281Z,98625.72
2022-08-30T01:19:53.624Z,98631.03
2022-08-30T01:20:58.304Z,98636.72
2022-08-30T01:22:10.124Z,98644.72
2022-08-30T01:23:14.748Z,98641.69
2022-08-30T01:24:18.353Z,98635.22
2022-08-30T01:25:25.709Z,98631.03
2022-08-30T01:26:29.591Z,98636.72
2022-08-30T01:27:32.072Z,98634.84
2022-08-30T01:28:34.847Z,98633.69
2022-08-30T01:29:37.134Z,98632.94
2022-08-30T01:30:40.172Z,98638.63
2022-08-30T01:31:41.676Z,98637.09
2022-08-30T01:32:46.445Z,98631.06
2022-08-30T01:33:47.942Z,98633.72
2022-08-30T01:34:49.956Z,98641.31
2022-08-30T01:35:54.114Z,98630.66
2022-08-30T01:36:55.813Z,98621.16
2022-08-30T01:37:57.300Z,98628.38
2022-08-30T01:38:59.194Z,98627.97
2022-08-30T01:40:01.345Z,98635.19
2022-08-30T01:41:16.331Z,98633.66
2022-08-30T01:42:18.163Z,98634.41
2022-08-30T01:43:20.117Z,98644.66
2022-08-30T01:44:21.606Z,98635.19
2022-08-30T01:45:23.308Z,98637.03
2022-08-30T01:46:28.208Z,98636.63
2022-08-30T01:47:29.956Z,98629.03
2022-08-30T01:48:31.789Z,98637.75
2022-08-30T01:49:33.266Z,98635.47
2022-08-30T01:50:34.849Z,98631.69
2022-08-30T01:51:38.510Z,98636.22
2022-08-30T01:52:40.780Z,98637.38
2022-08-30T01:53:44.238Z,98644.97
2022-08-30T01:54:46.724Z,98640.03
2022-08-30T01:55:48.237Z,98635.88
2022-08-30T01:56:50.694Z,98640.44
2022-08-30T01:57:52.198Z,98638.56
2022-08-30T01:58:57.289Z,98642.72
2022-08-30T02:00:02.278Z,98639.69
2022-08-30T02:01:06.514Z,98638.53
2022-08-30T02:02:08.508Z,98642.34
2022-08-30T02:03:10.498Z,98638.56
2022-08-30T02:04:13.599Z,98641.63
2022-08-30T02:05:16.048Z,98642.00
2022-08-30T02:06:19.343Z,98643.53
2022-08-30T02:07:22.644Z,98642.38
2022-08-30T02:08:24.514Z,98641.97
2022-08-30T02:09:26.117Z,98641.59
2022-08-30T02:10:28.607Z,98639.34
2022-08-30T02:11:30.530Z,98638.63
2022-08-30T02:12:32.606Z,98635.22
2022-08-30T02:13:34.504Z,98637.47
2022-08-30T02:14:37.253Z,98634.06
2022-08-30T02:15:41.719Z,98636.72
2022-08-30T02:16:43.646Z,98640.50
2022-08-30T02:17:45.826Z,98639.38
2022-08-30T02:18:47.588Z,98638.22
2022-08-30T02:19:49.021Z,98638.59
2022-08-30T02:20:51.018Z,98643.13
2022-08-30T02:21:52.505Z,98637.06
2022-08-30T02:22:54.022Z,98641.22
2022-08-30T02:23:56.344Z,98637.78
2022-08-30T02:24:57.919Z,98642.00
2022-08-30T02:25:59.732Z,98645.41
2022-08-30T02:27:01.411Z,98632.84
2022-08-30T02:28:03.518Z,98630.19
2022-08-30T02:29:06.198Z,98645.38
2022-08-30T02:30:10.374Z,98635.16
2022-08-30T02:31:12.402Z,98637.44
2022-08-30T02:32:13.996Z,98627.19
2022-08-30T02:33:16.183Z,98638.53
2022-08-30T02:34:18.371Z,98636.22
2022-08-30T02:35:19.865Z,98632.00
2022-08-30T02:36:22.106Z,98628.56
2022-08-30T02:37:23.668Z,98635.41
2022-08-30T02:38:26.037Z,98634.28
2022-08-30T02:39:27.580Z,98630.09
2022-08-30T02:40:29.235Z,98633.91
2022-08-30T02:41:30.695Z,98635.72
2022-08-30T02:42:32.288Z,98636.50
2022-08-30T02:43:34.123Z,98632.75
2022-08-30T02:44:35.608Z,98631.63
2022-08-30T02:45:37.687Z,98634.69
2022-08-30T02:46:39.385Z,98633.97
2022-08-30T02:47:46.700Z,98633.63
2022-08-30T02:48:48.876Z,98637.81
2022-08-30T02:49:50.363Z,98627.19
2022-08-30T02:50:52.726Z,98627.13
2022-08-30T02:51:54.186Z,98633.97
2022-08-30T02:52:55.761Z,98632.81
2022-08-30T02:53:57.555Z,98632.34
2022-08-30T02:54:59.794Z,98636.16
2022-08-30T02:56:01.649Z,98635.34
2022-08-30T02:57:04.982Z,98639.53
2022-08-30T02:58:07.217Z,98633.06
2022-08-30T02:59:08.704Z,98636.91
2022-08-30T03:00:14.983Z,98635.06
2022-08-30T03:01:16.887Z,98632.38
2022-08-30T03:02:18.475Z,98632.00
2022-08-30T03:03:20.559Z,98633.19
2022-08-30T03:04:26.539Z,98632.00
2022-08-30T03:05:28.587Z,98629.41
2022-08-30T03:06:30.283Z,98629.00
2022-08-30T03:07:31.799Z,98622.19
2022-08-30T03:08:34.836Z,98633.19
2022-08-30T03:09:36.758Z,98625.19
2022-08-30T03:10:38.459Z,98628.53
2022-08-30T03:11:42.629Z,98628.19
2022-08-30T03:12:44.508Z,98632.31
2022-08-30T03:13:46.344Z,98631.91
2022-08-30T03:14:48.394Z,98634.22
2022-08-30T03:15:50.458Z,98630.00
2022-08-30T03:16:52.250Z,98629.81
2022-08-30T03:17:55.621Z,98627.56
2022-08-30T03:18:57.192Z,98629.91
2022-08-30T03:20:00.383Z,98629.13
2022-08-30T03:21:01.999Z,98627.22
2022-08-30T03:22:05.580Z,98632.88
2022-08-30T03:23:07.402Z,98626.72
2022-08-30T03:24:08.957Z,98631.59
2022-08-30T03:25:11.674Z,98632.75
2022-08-30T03:26:14.945Z,98631.19
2022-08-30T03:27:16.489Z,98634.19
2022-08-30T03:28:18.339Z,98632.03
2022-08-30T03:29:19.845Z,98630.22
2022-08-30T03:30:21.353Z,98625.28
2022-08-30T03:31:23.690Z,98629.13
2022-08-30T03:32:25.422Z,98632.97
2022-08-30T03:33:27.539Z,98622.34
2022-08-30T03:34:29.035Z,98628.03
2022-08-30T03:35:33.169Z,98632.56
2022-08-30T03:36:34.811Z,98635.56
2022-08-30T03:37:37.097Z,98634.03
2022-08-30T03:38:42.253Z,98641.13
2022-08-30T03:39:45.537Z,98643.78
2022-08-30T03:40:47.067Z,98636.22
2022-08-30T03:41:49.049Z,98640.66
2022-08-30T03:42:51.637Z,98642.56
2022-08-30T03:43:54.296Z,98645.22
2022-08-30T03:45:04.969Z,98640.66
2022-08-30T03:46:07.820Z,98639.19
2022-08-30T03:47:09.330Z,98647.03
2022-08-30T03:48:11.028Z,98642.00
2022-08-30T03:49:12.760Z,98642.78
2022-08-30T03:50:15.863Z,98642.00
2022-08-30T03:51:17.541Z,98641.66
2022-08-30T03:52:19.020Z,98641.31
2022-08-30T03:53:20.848Z,98643.53
2022-08-30T03:54:24.709Z,98643.66
2022-08-30T03:55:28.141Z,98642.63
2022-08-30T03:56:29.730Z,98640.69
2022-08-30T03:57:31.628Z,98645.63
2022-08-30T03:58:34.439Z,98645.19
2022-08-30T03:59:35.963Z,98644.06
2022-08-30T04:00:37.972Z,98650.84
2022-08-30T04:01:39.594Z,98646.31
2022-08-30T04:02:41.891Z,98650.44
2022-08-30T04:03:43.526Z,98640.25
2022-08-30T04:04:45.023Z,98641.72
2022-08-30T04:05:46.480Z,98647.38
2022-08-30T04:06:48.914Z,98648.72
2022-08-30T04:07:50.912Z,98640.06
2022-08-30T04:08:52.373Z,98643.38
2022-08-30T04:09:53.867Z,98647.59
2022-08-30T04:10:55.539Z,98635.94
2022-08-30T04:11:57.404Z,98645.09
2022-08-30T04:12:58.844Z,98652.28
2022-08-30T04:14:00.408Z,98657.97
2022-08-30T04:15:02.718Z,98660.63
2022-08-30T04:16:04.398Z,98659.56
2022-08-30T04:17:06.574Z,98651.94
2022-08-30T04:18:08.780Z,98657.25
2022-08-30T04:19:11.020Z,98656.81
2022-08-30T04:20:12.545Z,98660.25
2022-08-30T04:21:15.742Z,98664.75
2022-08-30T04:22:17.814Z,98654.84
2022-08-30T04:23:19.820Z,98652.09
2022-08-30T04:24:21.297Z,98661.19
2022-08-30T04:25:22.913Z,98659.63
2022-08-30T04:26:29.294Z,98655.13
2022-08-30T04:27:31.744Z,98659.38
2022-08-30T04:28:35.134Z,98655.66
2022-08-30T04:29:36.930Z,98654.56
2022-08-30T04:30:43.030Z,98658.06
2022-08-30T04:31:45.591Z,98655.44
2022-08-30T04:32:47.506Z,98655.09
2022-08-30T04:33:49.707Z,98659.28
2022-08-30T04:34:56.902Z,98657.88
2022-08-30T04:36:04.526Z,98660.53
2022-08-30T04:37:06.418Z,98666.22
2022-08-30T04:38:13.627Z,98657.13
2022-08-30T04:39:16.257Z,98659.44
2022-08-30T04:40:17.905Z,98657.53
2022-08-30T04:41:20.943Z,98663.97
2022-08-30T04:42:22.738Z,98662.78
2022-08-30T04:43:26.787Z,98655.50
2022-08-30T04:44:28.260Z,98664.16
2022-08-30T04:45:30.030Z,98668.63
2022-08-30T04:46:31.594Z,98665.47
2022-08-30T04:47:33.505Z,98670.25
2022-08-30T04:48:36.788Z,98666.16
2022-08-30T04:49:38.406Z,98666.53
2022-08-30T04:50:39.914Z,98674.38
2022-08-30T04:51:41.428Z,98668.63
2022-08-30T04:52:43.369Z,98670.88
2022-08-30T04:53:45.549Z,98675.06
2022-08-30T04:54:47.127Z,98672.47
2022-08-30T04:55:48.804Z,98674.34
2022-08-30T04:56:50.594Z,98676.25
2022-08-30T04:57:53.027Z,98674.75
2022-08-30T04:58:55.843Z,98681.59
2022-08-30T04:59:57.557Z,98687.31
2022-08-30T05:00:59.113Z,98686.56
2022-08-30T05:02:00.993Z,98689.25
2022-08-30T05:03:03.167Z,98682.44
2022-08-30T05:04:04.700Z,98687.75
2022-08-30T05:05:25.526Z,98687.44
2022-08-30T05:06:31.166Z,98683.56
2022-08-30T05:07:33.583Z,98690.06
2022-08-30T05:08:35.094Z,98690.84
2022-08-30T05:09:37.665Z,98685.66
2022-08-30T05:10:45.101Z,98689.06
2022-08-30T05:11:47.362Z,98693.66
2022-08-30T05:12:48.924Z,98697.50
2022-08-30T05:13:50.406Z,98692.59
2022-08-30T05:14:52.040Z,98696.09
2022-08-30T05:15:54.303Z,98698.38
2022-08-30T05:16:56.545Z,98690.41
2022-08-30T05:17:58.052Z,98696.91
2022-08-30T05:18:59.529Z,98693.91
2022-08-30T05:20:02.331Z,98686.34
2022-08-30T05:21:09.584Z,98690.91
2022-08-30T05:22:11.921Z,98700.44
2022-08-30T05:23:13.533Z,98694.75
2022-08-30T05:24:15.114Z,98695.91
2022-08-30T05:25:26.044Z,98695.19
2022-08-30T05:26:31.018Z,98697.13
2022-08-30T05:27:32.932Z,98692.63
2022-08-30T05:28:39.449Z,98693.75
2022-08-30T05:29:40.967Z,98695.25
2022-08-30T05:30:42.431Z,98698.31
2022-08-30T05:31:45.245Z,98693.44
2022-08-30T05:32:47.158Z,98685.84
2022-08-30T05:33:49.572Z,98687.38
2022-08-30T05:34:51.360Z,98684.38
2022-08-30T05:35:53.088Z,98687.81
2022-08-30T05:36:55.066Z,98690.09
2022-08-30T05:37:56.691Z,98691.22
2022-08-30T05:38:58.354Z,98690.88
2022-08-30T05:40:00.102Z,98689.00
2022-08-30T05:41:04.143Z,98687.09
2022-08-30T05:42:08.458Z,98694.31
2022-08-30T05:43:11.364Z,98691.66
2022-08-30T05:44:12.784Z,98686.38
2022-08-30T05:45:15.260Z,98689.84
2022-08-30T05:46:19.576Z,98685.34
2022-08-30T05:47:21.581Z,98688.38
2022-08-30T05:48:23.021Z,98693.75
2022-08-30T05:49:24.482Z,98686.16
2022-08-30T05:50:25.911Z,98685.41
2022-08-30T05:51:29.155Z,98680.13
2022-08-30T05:52:30.678Z,98690.38
2022-08-30T05:53:32.380Z,98688.06
2022-08-30T05:54:33.926Z,98682.72
2022-08-30T05:55:35.886Z,98678.19
2022-08-30T05:56:39.978Z,98680.50
2022-08-30T05:57:41.825Z,98682.41
2022-08-30T05:58:43.459Z,98683.50
2022-08-30T05:59:44.885Z,98691.47
2022-08-30T06:00:46.586Z,98689.56
2022-08-30T06:01:48.927Z,98690.31
2022-08-30T06:02:54.711Z,98695.63
2022-08-30T06:04:01.635Z,98697.16
2022-08-30T06:05:05.823Z,98684.63
2022-08-30T06:06:07.778Z,98682.72
2022-08-30T06:07:11.757Z,98689.97
2022-08-30T06:08:16.619Z,98683.50
2022-08-30T06:09:18.656Z,98681.63
2022-08-30T06:10:20.469Z,98686.56
2022-08-30T06:11:24.539Z,98693.44
2022-08-30T06:12:27.706Z,98690.00
2022-08-30T06:13:29.171Z,98690.00
2022-08-30T06:14:30.676Z,98690.03
2022-08-30T06:15:32.308Z,98693.44
2022-08-30T06:16:35.645Z,98694.19
2022-08-30T06:17:39.800Z,98699.50
2022-08-30T06:18:41.555Z,98699.91
2022-08-30T06:19:43.083Z,98692.31
2022-08-30T06:20:50.200Z,98691.53
2022-08-30T06:21:52.756Z,98689.63
2022-08-30T06:22:54.233Z,98696.44
2022-08-30T06:23:57.307Z,98699.84
2022-08-30T06:24:58.850Z,98696.41
2022-08-30T06:26:07.402Z,98692.59
2022-08-30T06:27:10.115Z,98699.44
2022-08-30T06:28:12.291Z,98705.88
2022-08-30T06:29:16.476Z,98699.41
2022-08-30T06:30:18.876Z,98708.50
2022-08-30T06:31:22.850Z,98697.44
2022-08-30T06:32:24.554Z,98713.00
2022-08-30T06:33:26.340Z,98706.88
2022-08-30T06:34:28.257Z,98706.94
2022-08-30T06:35:32.652Z,98710.34
2022-08-30T06:36:37.346Z,98708.03
2022-08-30T06:37:38.844Z,98701.13
2022-08-30T06:38:40.846Z,98710.97
2022-08-30T06:39:42.361Z,98704.84
2022-08-30T06:40:43.890Z,98702.47
2022-08-30T06:41:45.755Z,98703.53
2022-08-30T06:42:48.000Z,98704.66
2022-08-30T06:43:49.864Z,98703.03
2022-08-30T06:44:51.985Z,98709.81
2022-08-30T06:45:53.461Z,98705.53
2022-08-30T06:46:55.286Z,98707.75
2022-08-30T06:49:01.283Z,98711.69
2022-08-30T06:50:03.217Z,98708.59
2022-08-30T06:51:06.558Z,98709.63
2022-08-30T06:52:08.046Z,98705.69
2022-08-30T06:53:12.475Z,98715.13
2022-08-30T06:54:13.994Z,98713.84
2022-08-30T06:55:16.449Z,98711.06
2022-08-30T06:56:19.579Z,98712.53
2022-08-30T06:57:21.412Z,98709.38
2022-08-30T06:58:23.556Z,98707.00
2022-08-30T06:59:25.602Z,98717.22
2022-08-30T07:00:29.291Z,98713.31
2022-08-30T07:01:31.505Z,98712.41
2022-08-30T07:02:33.118Z,98711.59
2022-08-30T07:03:35.602Z,98714.91
2022-08-30T07:04:38.666Z,98714.91
2022-08-30T07:05:40.183Z,98713.19
2022-08-30T07:06:41.708Z,98712.69
2022-08-30T07:07:43.212Z,98715.72
2022-08-30T07:08:45.556Z,98712.91
2022-08-30T07:09:47.272Z,98712.63
2022-08-30T07:10:49.676Z,98717.09
2022-08-30T07:11:52.474Z,98713.44
2022-08-30T07:12:53.850Z,98711.22
2022-08-30T07:13:55.744Z,98711.13
2022-08-30T07:14:57.331Z,98712.41
2022-08-30T07:15:58.895Z,98710.78
2022-08-30T07:17:00.390Z,98712.53
2022-08-30T07:18:21.146Z,98710.44
2022-08-30T07:19:23.076Z,98712.81
2022-08-30T07:20:24.587Z,98710.72
2022-08-30T07:21:46.332Z,98720.41
2022-08-30T07:22:48.712Z,98719.94
2022-08-30T07:23:53.498Z,98722.53
2022-08-30T07:24:55.236Z,98727.63
2022-08-30T07:25:57.171Z,98731.19
2022-08-30T07:26:58.697Z,98726.75
2022-08-30T07:28:00.171Z,98728.53
2022-08-30T07:29:02.368Z,98723.31
2022-08-30T07:30:06.121Z,98719.25
2022-08-30T07:32:15.228Z,98724.63
2022-08-30T07:33:16.880Z,98725.97
2022-08-30T07:34:20.479Z,98726.91
2022-08-30T07:35:24.042Z,98731.94
2022-08-30T07:36:25.645Z,98729.91
2022-08-30T07:37:27.188Z,98731.25
2022-08-30T07:38:28.688Z,98736.91
2022-08-30T07:39:31.925Z,98733.94
2022-08-30T07:40:33.585Z,98734.53
2022-08-30T07:41:38.741Z,98731.78
2022-08-30T07:42:41.045Z,98732.69
2022-08-30T07:43:42.518Z,98733.72
2022-08-30T07:44:44.495Z,98735.28
2022-08-30T07:45:46.340Z,98736.34
2022-08-30T07:46:48.185Z,98738.13
2022-08-30T07:47:49.686Z,98737.16
2022-08-30T07:48:54.193Z,98739.28
2022-08-30T07:49:55.748Z,98739.09
2022-08-30T07:51:00.778Z,98735.09
2022-08-30T07:52:05.432Z,98737.13
2022-08-30T07:53:09.361Z,98728.22
2022-08-30T07:54:12.858Z,98728.28
2022-08-30T07:55:14.528Z,98728.44
2022-08-30T07:56:16.724Z,98736.38
2022-08-30T07:57:18.220Z,98734.31
2022-08-30T07:58:19.767Z,98735.28
2022-08-30T07:59:22.344Z,98741.50
2022-08-30T08:00:23.830Z,98746.00
2022-08-30T08:01:25.708Z,98744.78
2022-08-30T08:02:27.522Z,98742.25
2022-08-30T08:03:29.896Z,98741.63
2022-08-30T08:04:31.634Z,98741.78
2022-08-30T08:05:41.124Z,98731.00
2022-08-30T08:06:43.062Z,98732.72
2022-08-30T08:07:44.896Z,98738.50
2022-08-30T08:08:46.734Z,98737.06
2022-08-30T08:09:48.204Z,98731.22
2022-08-30T08:10:49.651Z,98733.47
2022-08-30T08:11:51.221Z,98737.84
2022-08-30T08:12:52.690Z,98739.88
2022-08-30T08:13:54.890Z,98735.84
2022-08-30T08:14:56.350Z,98736.78
2022-08-30T08:15:57.926Z,98738.16
2022-08-30T08:16:59.925Z,98734.41
2022-08-30T08:18:01.428Z,98729.06
2022-08-30T08:19:04.547Z,98731.22
2022-08-30T08:20:06.579Z,98728.25
2022-08-30T08:21:08.364Z,98735.53
2022-08-30T08:22:20.502Z,98728.34
2022-08-30T08:23:22.979Z,98729.81
2022-08-30T08:24:24.432Z,98726.63
2022-08-30T08:25:26.869Z,98728.06
2022-08-30T08:26:28.483Z,98731.25
2022-08-30T08:27:29.911Z,98734.09
2022-08-30T08:28:31.397Z,98724.94
2022-08-30T08:29:33.199Z,98720.47
2022-08-30T08:30:37.339Z,98720.88
2022-08-30T08:31:39.218Z,98721.31
2022-08-30T08:32:40.934Z,98725.81
2022-08-30T08:33:43.680Z,98719.88
2022-08-30T08:34:45.176Z,98722.16
2022-08-30T08:35:47.190Z,98726.81
2022-08-30T08:36:49.425Z,98726.19
2022-08-30T08:37:50.945Z,98730.50
2022-08-30T08:38:53.419Z,98726.94
2022-08-30T08:39:55.830Z,98717.28
2022-08-30T08:41:24.307Z,98718.97
2022-08-30T08:42:48.780Z,98713.72
2022-08-30T08:43:50.304Z,98718.44
2022-08-30T08:45:16.984Z,98717.56
2022-08-30T08:46:48.779Z,98721.13
2022-08-30T08:48:12.022Z,98722.50
2022-08-30T08:49:14.468Z,98710.78
2022-08-30T08:50:20.076Z,98714.06
2022-08-30T08:51:45.991Z,98711.28
2022-08-30T08:53:25.044Z,98718.03
2022-08-30T08:54:44.262Z,98719.69
2022-08-30T08:55:50.786Z,98720.88
2022-08-30T08:56:52.365Z,98715.47
2022-08-30T08:57:53.896Z,98713.94
2022-08-30T08:58:57.442Z,98721.97
2022-08-30T08:59:59.266Z,98726.50
2022-08-30T09:01:00.858Z,98724.72
2022-08-30T09:02:19.248Z,98726.03
2022-08-30T09:03:23.259Z,98714.34
2022-08-30T09:04:33.740Z,98721.13
2022-08-30T09:05:38.923Z,98715.03
2022-08-30T09:06:56.996Z,98721.81
2022-08-30T09:08:09.947Z,98724.22
2022-08-30T09:09:12.404Z,98727.31
2022-08-30T09:10:14.166Z,98714.22
2022-08-30T09:11:24.781Z,98723.66
2022-08-30T09:12:28.779Z,98721.75
2022-08-30T09:13:30.363Z,98717.69
2022-08-30T09:14:45.929Z,98717.66
2022-08-30T09:15:53.728Z,98720.09
2022-08-30T09:17:05.698Z,98727.53
2022-08-30T09:18:19.833Z,98724.72
2022-08-30T09:19:39.790Z,98720.41
2022-08-30T09:20:46.988Z,98723.41
2022-08-30T09:21:57.286Z,98713.06
2022-08-30T09:23:13.886Z,98720.66
2022-08-30T09:24:15.455Z,98716.66
2022-08-30T09:25:32.573Z,98716.94
2022-08-30T09:26:37.622Z,98709.19
2022-08-30T09:27:47.994Z,98720.56
2022-08-30T09:28:51.411Z,98710.88
2022-08-30T09:29:54.360Z,98712.25
2022-08-30T09:31:18.867Z,98712.84
2022-08-30T09:32:32.982Z,98713.69
2022-08-30T09:33:37.068Z,98712.84
2022-08-30T09:34:38.589Z,98712.94
2022-08-30T09:35:49.591Z,98697.88
2022-08-30T09:36:53.579Z,98702.19
2022-08-30T09:38:07.662Z,98709.75
2022-08-30T09:39:17.357Z,98708.75
2022-08-30T09:40:52.885Z,98709.72
2022-08-30T09:42:09.874Z,98709.16
2022-08-30T09:43:17.926Z,98701.13
2022-08-30T09:44:31.515Z,98700.97
2022-08-30T09:45:40.042Z,98697.50
2022-08-30T09:46:58.145Z,98697.28
2022-08-30T09:48:00.971Z,98699.00
2022-08-30T09:49:02.600Z,98694.50
2022-08-30T09:50:08.786Z,98699.94
2022-08-30T09:51:10.330Z,98688.13
2022-08-30T09:52:18.679Z,98686.28
2022-08-30T09:53:31.133Z,98696.19
2022-08-30T09:55:01.512Z,98690.25
2022-08-30T09:56:34.784Z,98700.38
2022-08-30T09:57:58.020Z,98685.59
2022-08-30T09:59:09.371Z,98695.81
2022-08-30T10:00:21.499Z,98690.28
2022-08-30T10:01:53.108Z,98691.81
2022-08-30T10:03:35.776Z,98695.75
2022-08-30T10:05:01.137Z,98696.41
2022-08-30T10:06:11.635Z,98689.94
2022-08-30T10:07:17.408Z,98688.31
2022-08-30T10:08:46.537Z,98690.59
2022-08-30T10:10:02.284Z,98691.34
2022-08-30T10:11:24.480Z,98686.06
2022-08-30T10:12:37.975Z,98683.44
2022-08-30T10:13:53.465Z,98674.81
2022-08-30T10:15:22.542Z,98680.28
2022-08-30T10:16:39.244Z,98669.69
2022-08-30T10:17:56.567Z,98676.09
2022-08-30T10:19:08.958Z,98674.31
2022-08-30T10:20:17.638Z,98675.31
2022-08-30T10:21:28.312Z,98673.69
2022-08-30T10:22:53.076Z,98678.72
2022-08-30T10:24:07.991Z,98674.63
2022-08-30T10:25:21.316Z,98675.44
2022-08-30T10:26:37.244Z,98668.59
2022-08-30T10:27:43.105Z,98671.13
2022-08-30T10:28:58.760Z,98657.22
2022-08-30T10:30:14.086Z,98665.84
2022-08-30T10:31:44.278Z,98663.22
2022-08-30T10:33:14.010Z,98659.84
2022-08-30T10:34:29.561Z,98657.03
2022-08-30T10:35:43.629Z,98654.84
2022-08-30T10:37:04.542Z,98656.31
2022-08-30T10:38:29.496Z,98653.00
2022-08-30T10:39:50.833Z,98647.84
2022-08-30T10:41:18.284Z,98639.34
2022-08-30T10:42:24.590Z,98639.28
2022-08-30T10:43:33.817Z,98636.69
2022-08-30T10:44:42.189Z,98636.44
2022-08-30T10:45:47.988Z,98633.16
2022-08-30T10:47:05.040Z,98636.50
2022-08-30T10:48:19.357Z,98634.69
2022-08-30T10:49:27.301Z,98637.56
2022-08-30T10:50:34.899Z,98637.31
2022-08-30T10:52:16.823Z,98643.00
2022-08-30T10:53:30.156Z,98635.47
2022-08-30T10:54:43.147Z,98639.22
2022-08-30T10:56:10.201Z,98632.78
2022-08-30T10:57:14.704Z,98640.88
2022-08-30T10:58:18.414Z,98630.56
2022-08-30T10:59:21.129Z,98631.44
2022-08-30T11:00:25.016Z,98633.84
2022-08-30T11:01:46.608Z,98633.53
2022-08-30T11:03:10.022Z,98630.19
2022-08-30T11:04:30.470Z,98631.97
2022-08-30T11:05:42.067Z,98630.34
2022-08-30T11:06:53.875Z,98624.00
2022-08-30T11:08:20.244Z,98620.31
2022-08-30T11:09:44.023Z,98629.47
2022-08-30T11:10:54.402Z,98631.91
2022-08-30T11:12:17.758Z,98626.56
2022-08-30T11:13:29.843Z,98629.44
2022-08-30T11:14:31.431Z,98625.09
2022-08-30T11:15:52.538Z,98623.31
2022-08-30T11:16:59.112Z,98619.16
2022-08-30T11:18:09.826Z,98625.16
2022-08-30T11:19:37.076Z,98622.28
2022-08-30T11:20:43.458Z,98620.81
2022-08-30T11:21:47.754Z,98615.72
2022-08-30T11:23:25.819Z,98611.38
2022-08-30T11:24:27.999Z,98616.91
2022-08-30T11:25:53.593Z,98620.84
2022-08-30T11:27:01.416Z,98613.94
2022-08-30T11:28:05.854Z,98610.78
2022-08-30T11:29:08.215Z,98610.78
2022-08-30T11:30:26.568Z,98618.13
2022-08-30T11:31:38.631Z,98613.06
2022-08-30T11:33:39.653Z,98605.84
2022-08-30T11:34:46.862Z,98609.44
2022-08-30T11:35:52.532Z,98606.28
2022-08-30T11:36:53.936Z,98614.72
2022-08-30T11:37:56.524Z,98614.38
2022-08-30T11:39:11.984Z,98614.97
2022-08-30T11:40:20.107Z,98610.66
2022-08-30T11:42:06.264Z,98615.16
2022-08-30T11:43:34.507Z,98610.34
2022-08-30T11:44:36.287Z,98617.00
2022-08-30T11:45:41.780Z,98605.28
2022-08-30T11:46:45.440Z,98602.44
2022-08-30T11:47:51.279Z,98603.34
2022-08-30T11:49:23.404Z,98609.34
2022-08-30T11:50:48.259Z,98603.47
2022-08-30T11:52:27.955Z,98607.69
2022-08-30T11:53:45.860Z,98607.69
2022-08-30T11:55:25.500Z,98603.19
2022-08-30T11:57:04.108Z,98603.50
2022-08-30T11:58:15.384Z,98598.81
2022-08-30T11:59:16.900Z,98603.19
2022-08-30T12:00:41.626Z,98599.28
2022-08-30T12:01:51.974Z,98602.00
2022-08-30T12:03:00.591Z,98600.94
2022-08-30T12:04:16.407Z,98600.94
2022-08-30T12:05:39.861Z,98598.53
2022-08-30T12:06:41.264Z,98604.56
2022-08-30T12:08:05.650Z,98601.38
2022-08-30T12:09:33.123Z,98599.44
2022-08-30T12:10:47.158Z,98593.41
2022-08-30T12:12:30.977Z,98591.94
2022-08-30T12:13:37.820Z,98592.81
2022-08-30T12:14:51.672Z,98593.13
2022-08-30T12:15:56.086Z,98598.53
2022-08-30T12:17:18.281Z,98600.63
2022-08-30T12:18:29.550Z,98598.97
2022-08-30T12:19:32.666Z,98604.50
2022-08-30T12:20:45.075Z,98596.41
2022-08-30T12:21:56.985Z,98592.66
2022-08-30T12:23:17.370Z,98591.19
2022-08-30T12:24:43.745Z,98588.63
2022-08-30T12:25:46.574Z,98590.44
2022-08-30T12:26:51.370Z,98583.22
2022-08-30T12:28:13.743Z,98591.91
2022-08-30T12:29:27.312Z,98596.22
2022-08-30T12:30:28.839Z,98595.66
2022-08-30T12:31:30.442Z,98589.63
2022-08-30T12:32:32.590Z,98587.19
2022-08-30T12:33:41.711Z,98589.44
2022-08-30T12:34:46.138Z,98589.56
2022-08-30T12:35:47.650Z,98584.75
2022-08-30T12:37:04.570Z,98584.81
2022-08-30T12:38:14.061Z,98586.78
2022-08-30T12:39:22.755Z,98586.31
2022-08-30T12:40:25.644Z,98585.25
2022-08-30T12:41:27.151Z,98581.06
2022-08-30T12:42:31.596Z,98580.78
2022-08-30T12:43:47.377Z,98579.97
2022-08-30T12:44:53.240Z,98579.00
2022-08-30T12:45:57.851Z,98579.59
2022-08-30T12:47:09.558Z,98580.88
2022-08-30T12:48:17.930Z,98578.28
2022-08-30T12:49:24.217Z,98578.34
2022-08-30T12:50:30.274Z,98577.19
2022-08-30T12:51:39.121Z,98582.94
2022-08-30T12:52:45.598Z,98573.69
2022-08-30T12:53:51.270Z,98579.88
2022-08-30T12:54:55.178Z,98575.22
2022-08-30T12:56:03.231Z,98574.88
2022-08-30T12:57:32.184Z,98577.84
2022-08-30T12:58:51.130Z,98572.72